Northfield, New York
Current Conditions -  °F | °C
As of 3:15 PM on Friday 19 Dec 2014 (Local Time) from KMSV Reporting Station
Overcast Overcast  
Wind Chill: 15°   Ceiling: 1900
Heat Index: 27°   Visibility: 10mi
Dew Point: 19°   Wind: 14mph
Humidity: 74%   Direction: 300°WNW
Pressure: 30.05"   Gusts: 21mph
Location:  42.1536°N, 75.1637°W
Report Text: KMSV 192015Z AUTO 30012G18KT 10SM OVC019 M03/M07 A3005 RMK AO1
Loading
Personal Weather Stations






























Interactive Weather Map New forecast layout! Learn more

10-Day Weather Forecast

Advertisements
Track Severe Weather on mobile